createdAt,value
2018-09-03T00:00:43.914Z,0.00
2018-09-03T00:01:43.900Z,0.00
2018-09-03T00:02:43.941Z,0.00
2018-09-03T00:03:43.884Z,0.00
2018-09-03T00:04:43.889Z,0.00
2018-09-03T00:05:43.856Z,0.00
2018-09-03T00:06:43.842Z,0.00
2018-09-03T00:07:43.860Z,0.00
2018-09-03T00:08:43.840Z,0.00
2018-09-03T00:09:43.813Z,0.00
2018-09-03T00:10:43.808Z,0.00
2018-09-03T00:11:43.815Z,0.00
2018-09-03T00:12:43.781Z,0.00
2018-09-03T00:13:43.769Z,0.00
2018-09-03T00:14:43.790Z,0.00
2018-09-03T00:15:43.745Z,0.00
2018-09-03T00:16:43.733Z,0.00
2018-09-03T00:17:43.721Z,0.00
2018-09-03T00:18:43.803Z,0.00
2018-09-03T00:19:43.739Z,0.00
2018-09-03T00:20:43.688Z,0.00
2018-09-03T00:21:43.724Z,0.00
2018-09-03T00:22:43.663Z,0.00
2018-09-03T00:23:43.659Z,0.00
2018-09-03T00:24:43.665Z,0.00
2018-09-03T00:25:43.629Z,0.00
2018-09-03T00:26:43.661Z,0.00
2018-09-03T00:27:43.632Z,0.00
2018-09-03T00:28:43.605Z,0.00
2018-09-03T00:29:43.598Z,0.00
2018-09-03T00:30:43.604Z,0.00
2018-09-03T00:31:43.566Z,0.00
2018-09-03T00:32:43.558Z,0.00
2018-09-03T00:33:43.543Z,0.00
2018-09-03T00:34:43.532Z,0.00
2018-09-03T00:35:43.553Z,0.00
2018-09-03T00:36:43.506Z,0.00
2018-09-03T00:37:43.494Z,0.00
2018-09-03T00:38:43.500Z,0.00
2018-09-03T00:39:43.475Z,0.00
2018-09-03T00:40:43.489Z,0.00
2018-09-03T00:41:43.457Z,0.00
2018-09-03T00:42:43.441Z,0.00
2018-09-03T00:43:43.431Z,0.00
2018-09-03T00:44:43.416Z,0.00
2018-09-03T00:45:43.454Z,0.00
2018-09-03T00:46:43.400Z,0.00
2018-09-03T00:47:43.381Z,0.00
2018-09-03T00:48:43.381Z,0.00
2018-09-03T00:49:43.368Z,0.00
2018-09-03T00:50:43.391Z,0.00
2018-09-03T00:51:43.342Z,0.00
2018-09-03T00:52:43.333Z,0.00
2018-09-03T00:53:43.321Z,0.00
2018-09-03T00:54:43.350Z,0.00
2018-09-03T00:55:43.302Z,0.00
2018-09-03T00:56:43.286Z,0.00
2018-09-03T00:57:43.279Z,0.00
2018-09-03T00:58:43.306Z,0.00
2018-09-03T00:59:43.257Z,0.00
2018-09-03T01:00:43.251Z,0.00
2018-09-03T01:01:43.351Z,0.00
2018-09-03T01:02:43.232Z,0.00
2018-09-03T01:03:43.253Z,0.00
2018-09-03T01:04:43.206Z,0.00
2018-09-03T01:05:43.198Z,0.00
2018-09-03T01:06:43.181Z,0.00
2018-09-03T01:07:43.173Z,0.00
2018-09-03T01:08:43.195Z,0.00
2018-09-03T01:09:43.156Z,0.00
2018-09-03T01:10:43.174Z,0.00
2018-09-03T01:11:43.131Z,0.00
2018-09-03T01:12:43.146Z,0.00
2018-09-03T01:13:43.114Z,0.00
2018-09-03T01:14:43.093Z,0.00
2018-09-03T01:15:43.088Z,0.00
2018-09-03T01:16:43.112Z,0.00
2018-09-03T01:17:43.070Z,0.00
2018-09-03T01:18:43.059Z,0.00
2018-09-03T01:19:43.071Z,0.00
2018-09-03T01:20:43.039Z,0.00
2018-09-03T01:21:43.059Z,0.00
2018-09-03T01:22:43.011Z,0.00
2018-09-03T01:23:42.996Z,0.00
2018-09-03T01:24:42.987Z,0.00
2018-09-03T01:25:42.970Z,0.00
2018-09-03T01:26:42.996Z,0.00
2018-09-03T01:27:42.953Z,0.00
2018-09-03T01:28:43.002Z,0.00
2018-09-03T01:29:43.081Z,0.00
2018-09-03T01:30:42.966Z,0.00
2018-09-03T01:31:42.941Z,0.00
2018-09-03T01:32:42.896Z,0.00
2018-09-03T01:33:42.919Z,0.00
2018-09-03T01:34:42.875Z,0.00
2018-09-03T01:35:42.925Z,0.00
2018-09-03T01:36:42.856Z,0.00
2018-09-03T01:37:42.839Z,0.00
2018-09-03T01:38:42.837Z,0.00
2018-09-03T01:39:42.831Z,0.00
2018-09-03T01:40:42.829Z,0.00
2018-09-03T01:41:42.839Z,0.00
2018-09-03T01:42:42.787Z,0.00
2018-09-03T01:43:42.824Z,0.00
2018-09-03T01:44:42.839Z,0.00
2018-09-03T01:45:42.759Z,0.00
2018-09-03T01:46:42.751Z,0.00
2018-09-03T01:47:42.736Z,0.00
2018-09-03T01:48:42.754Z,0.00
2018-09-03T01:49:42.717Z,0.00
2018-09-03T01:50:42.701Z,0.00
2018-09-03T01:51:42.714Z,0.00
2018-09-03T01:52:42.682Z,0.00
2018-09-03T01:53:42.711Z,0.00
2018-09-03T01:54:42.658Z,0.00
2018-09-03T01:55:42.652Z,0.00
2018-09-03T01:56:42.640Z,0.00
2018-09-03T01:57:42.626Z,0.00
2018-09-03T01:58:42.643Z,0.00
2018-09-03T01:59:42.661Z,0.00
2018-09-03T02:00:42.598Z,0.00
2018-09-03T02:01:42.579Z,0.00
2018-09-03T02:02:42.570Z,0.00
2018-09-03T02:03:42.606Z,0.00
2018-09-03T02:04:42.554Z,0.00
2018-09-03T02:05:42.535Z,0.00
2018-09-03T02:06:42.557Z,0.00
2018-09-03T02:07:42.528Z,0.00
2018-09-03T02:08:42.576Z,0.00
2018-09-03T02:09:42.495Z,0.00
2018-09-03T02:10:42.518Z,0.00
2018-09-03T02:11:42.514Z,0.00
2018-09-03T02:12:42.460Z,0.00
2018-09-03T02:13:42.451Z,0.00
2018-09-03T02:14:42.448Z,0.00
2018-09-03T02:15:42.430Z,0.00
2018-09-03T02:16:42.442Z,0.00
2018-09-03T02:17:42.411Z,0.00
2018-09-03T02:18:42.425Z,0.00
2018-09-03T02:19:42.388Z,0.00
2018-09-03T02:20:42.370Z,0.00
2018-09-03T02:21:42.361Z,0.00
2018-09-03T02:22:42.380Z,0.00
2018-09-03T02:23:42.340Z,0.00
2018-09-03T02:24:42.371Z,0.00
2018-09-03T02:25:42.378Z,0.00
2018-09-03T02:26:42.311Z,0.00
2018-09-03T02:27:42.300Z,0.00
2018-09-03T02:28:42.286Z,0.00
2018-09-03T02:29:42.278Z,0.00
2018-09-03T02:30:42.290Z,0.00
2018-09-03T02:31:42.249Z,0.00
2018-09-03T02:32:42.235Z,0.00
2018-09-03T02:33:42.224Z,0.00
2018-09-03T02:34:42.220Z,0.00
2018-09-03T02:35:42.232Z,0.00
2018-09-03T02:36:42.201Z,0.00
2018-09-03T02:37:42.183Z,0.00
2018-09-03T02:38:42.167Z,0.00
2018-09-03T02:39:42.163Z,0.00
2018-09-03T02:40:42.240Z,0.00
2018-09-03T02:41:42.139Z,0.00
2018-09-03T02:42:42.127Z,0.00
2018-09-03T02:43:42.115Z,0.00
2018-09-03T02:44:42.107Z,0.00
2018-09-03T02:45:42.122Z,0.00
2018-09-03T02:46:42.085Z,0.00
2018-09-03T02:47:42.082Z,0.00
2018-09-03T02:48:42.133Z,0.00
2018-09-03T02:49:42.067Z,0.00
2018-09-03T02:50:42.035Z,0.00
2018-09-03T02:51:42.029Z,0.00
2018-09-03T02:52:42.019Z,0.00
2018-09-03T02:53:42.007Z,0.00
2018-09-03T02:54:42.026Z,0.00
2018-09-03T02:55:41.990Z,0.00
2018-09-03T02:56:42.010Z,0.00
2018-09-03T02:57:41.966Z,0.00
2018-09-03T02:58:41.948Z,0.00
2018-09-03T02:59:41.940Z,0.00
2018-09-03T03:00:41.961Z,0.00
2018-09-03T03:01:41.916Z,0.00
2018-09-03T03:02:41.905Z,0.00
2018-09-03T03:03:41.924Z,0.00
2018-09-03T03:04:41.937Z,0.00
2018-09-03T03:05:41.883Z,0.00
2018-09-03T03:06:41.859Z,0.00
2018-09-03T03:07:41.846Z,0.00
2018-09-03T03:08:41.850Z,0.00
2018-09-03T03:09:41.867Z,0.00
2018-09-03T03:10:41.819Z,0.00
2018-09-03T03:11:41.863Z,0.00
2018-09-03T03:12:41.836Z,0.00
2018-09-03T03:13:41.781Z,0.00
2018-09-03T03:14:41.803Z,0.00
2018-09-03T03:15:41.761Z,0.00
2018-09-03T03:16:41.750Z,0.00
2018-09-03T03:17:41.736Z,0.00
2018-09-03T03:18:41.757Z,0.00
2018-09-03T03:19:41.713Z,0.00
2018-09-03T03:20:41.715Z,0.00
2018-09-03T03:21:41.717Z,0.00
2018-09-03T03:22:41.682Z,0.00
2018-09-03T03:23:41.694Z,0.00
2018-09-03T03:24:41.694Z,0.00
2018-09-03T03:25:41.651Z,0.00
2018-09-03T03:26:41.639Z,0.00
2018-09-03T03:27:41.633Z,0.00
2018-09-03T03:28:41.632Z,0.00
2018-09-03T03:29:41.643Z,0.00
2018-09-03T03:30:41.594Z,0.00
2018-09-03T03:31:41.595Z,0.00
2018-09-03T03:32:41.576Z,0.00
2018-09-03T03:33:41.577Z,0.00
2018-09-03T03:34:41.599Z,0.00
2018-09-03T03:35:41.556Z,0.00
2018-09-03T03:36:41.537Z,0.00
2018-09-03T03:37:41.524Z,0.00
2018-09-03T03:38:41.506Z,0.00
2018-09-03T03:39:41.528Z,0.00
2018-09-03T03:40:41.489Z,0.00
2018-09-03T03:41:41.482Z,0.00
2018-09-03T03:42:41.464Z,0.00
2018-09-03T03:43:41.456Z,0.00
2018-09-03T03:44:41.574Z,0.00
2018-09-03T03:45:41.432Z,0.00
2018-09-03T03:46:41.451Z,0.00
2018-09-03T03:47:41.414Z,0.00
2018-09-03T03:48:41.525Z,0.00
2018-09-03T03:49:41.387Z,0.00
2018-09-03T03:50:41.381Z,0.00
2018-09-03T03:51:41.365Z,0.00
2018-09-03T03:52:41.389Z,0.00
2018-09-03T03:53:41.366Z,0.00
2018-09-03T03:54:41.336Z,0.00
2018-09-03T03:55:41.329Z,0.00
2018-09-03T03:56:41.313Z,0.00
2018-09-03T03:57:41.351Z,0.00
2018-09-03T03:58:41.293Z,0.00
2018-09-03T03:59:41.280Z,0.00
2018-09-03T04:00:41.348Z,0.00
2018-09-03T04:01:41.258Z,0.00
2018-09-03T04:02:41.287Z,0.00
2018-09-03T04:03:41.263Z,0.00
2018-09-03T04:04:41.236Z,0.00
2018-09-03T04:05:41.219Z,0.00
2018-09-03T04:06:41.228Z,0.00
2018-09-03T04:07:41.223Z,0.00
2018-09-03T04:08:41.216Z,0.00
2018-09-03T04:09:41.170Z,0.00
2018-09-03T04:10:41.199Z,0.00
2018-09-03T04:11:41.154Z,0.00
2018-09-03T04:12:41.134Z,0.00
2018-09-03T04:13:41.122Z,0.00
2018-09-03T04:14:41.123Z,0.00
2018-09-03T04:15:41.157Z,0.00
2018-09-03T04:16:41.096Z,0.00
2018-09-03T04:17:41.125Z,0.00
2018-09-03T04:18:41.093Z,0.00
2018-09-03T04:19:41.071Z,0.00
2018-09-03T04:20:41.048Z,0.00
2018-09-03T04:21:41.040Z,0.00
2018-09-03T04:22:41.087Z,0.00
2018-09-03T04:23:41.033Z,0.00
2018-09-03T04:24:41.074Z,0.00
2018-09-03T04:25:40.992Z,0.00
2018-09-03T04:26:40.983Z,0.00
2018-09-03T04:27:41.032Z,0.00
2018-09-03T04:28:41.019Z,0.00
2018-09-03T04:29:40.948Z,0.00
2018-09-03T04:30:40.942Z,0.00
2018-09-03T04:31:40.929Z,0.00
2018-09-03T04:32:40.956Z,0.00
2018-09-03T04:33:40.908Z,0.00
2018-09-03T04:34:40.900Z,0.00
2018-09-03T04:35:40.884Z,0.00
2018-09-03T04:36:40.903Z,0.00
2018-09-03T04:37:40.861Z,0.00
2018-09-03T04:38:40.922Z,0.00
2018-09-03T04:39:40.886Z,0.00
2018-09-03T04:40:40.922Z,0.00
2018-09-03T04:41:40.824Z,0.00
2018-09-03T04:42:40.816Z,0.00
2018-09-03T04:43:40.802Z,0.00
2018-09-03T04:44:40.788Z,0.00
2018-09-03T04:45:40.824Z,0.00
2018-09-03T04:46:40.768Z,0.00
2018-09-03T04:47:40.759Z,0.00
2018-09-03T04:48:40.743Z,0.00
2018-09-03T04:49:40.740Z,0.00
2018-09-03T04:50:40.768Z,0.00
2018-09-03T04:51:40.744Z,0.00
2018-09-03T04:52:40.738Z,0.00
2018-09-03T04:53:40.735Z,0.00
2018-09-03T04:54:40.724Z,0.00
2018-09-03T04:55:40.667Z,0.00
2018-09-03T04:56:40.741Z,0.00
2018-09-03T04:57:40.645Z,0.00
2018-09-03T04:58:40.696Z,0.00
2018-09-03T04:59:40.716Z,0.00
2018-09-03T05:00:40.611Z,0.00
2018-09-03T05:01:40.649Z,0.00
2018-09-03T05:02:40.623Z,0.00
2018-09-03T05:03:40.595Z,0.00
2018-09-03T05:04:40.599Z,0.00
2018-09-03T05:05:40.619Z,0.00
2018-09-03T05:06:40.553Z,0.00
2018-09-03T05:07:40.583Z,0.00
2018-09-03T05:08:40.526Z,5.62
2018-09-03T05:09:40.558Z,5.62
2018-09-03T05:10:40.509Z,5.62
2018-09-03T05:11:40.604Z,5.62
2018-09-03T05:12:40.485Z,5.62
2018-09-03T05:13:40.475Z,5.62
2018-09-03T05:14:40.459Z,5.62
2018-09-03T05:15:40.451Z,5.62
2018-09-03T05:16:40.463Z,5.62
2018-09-03T05:17:40.438Z,5.62
2018-09-03T05:18:40.414Z,5.62
2018-09-03T05:19:40.438Z,5.62
2018-09-03T05:20:40.453Z,5.62
2018-09-03T05:21:40.426Z,5.62
2018-09-03T05:22:40.373Z,5.62
2018-09-03T05:23:40.372Z,5.62
2018-09-03T05:24:40.354Z,5.62
2018-09-03T05:25:40.379Z,5.62
2018-09-03T05:26:40.369Z,11.25
2018-09-03T05:27:40.348Z,11.25
2018-09-03T05:28:40.306Z,11.25
2018-09-03T05:29:40.301Z,11.25
2018-09-03T05:30:40.290Z,11.25
2018-09-03T05:31:40.309Z,11.25
2018-09-03T05:32:40.269Z,11.25
2018-09-03T05:33:40.257Z,11.25
2018-09-03T05:34:40.242Z,11.25
2018-09-03T05:35:40.232Z,11.25
2018-09-03T05:36:40.268Z,11.25
2018-09-03T05:37:40.210Z,11.25
2018-09-03T05:38:40.198Z,11.25
2018-09-03T05:39:40.222Z,11.25
2018-09-03T05:40:40.185Z,11.25
2018-09-03T05:41:40.173Z,11.25
2018-09-03T05:42:40.158Z,11.25
2018-09-03T05:43:40.274Z,16.88
2018-09-03T05:44:40.178Z,16.88
2018-09-03T05:45:40.160Z,16.88
2018-09-03T05:46:40.118Z,22.50
2018-09-03T05:47:40.104Z,22.50
2018-09-03T05:48:40.115Z,22.50
2018-09-03T05:49:40.090Z,22.50
2018-09-03T05:50:40.161Z,22.50
2018-09-03T05:51:40.059Z,16.88
2018-09-03T05:52:40.158Z,22.50
2018-09-03T05:53:40.079Z,22.50
2018-09-03T05:54:40.053Z,28.12
2018-09-03T05:55:40.064Z,28.12
2018-09-03T05:56:40.000Z,28.12
2018-09-03T05:57:39.987Z,28.12
2018-09-03T05:58:39.992Z,28.12
2018-09-03T05:59:39.998Z,28.12
2018-09-03T06:00:39.962Z,33.75
2018-09-03T06:01:39.953Z,33.75
2018-09-03T06:02:39.938Z,28.12
2018-09-03T06:03:39.981Z,28.12
2018-09-03T06:04:39.914Z,22.50
2018-09-03T06:05:39.951Z,22.50
2018-09-03T06:06:39.896Z,22.50
2018-09-03T06:07:39.879Z,22.50
2018-09-03T06:08:39.874Z,22.50
2018-09-03T06:09:39.903Z,22.50
2018-09-03T06:10:39.919Z,22.50
2018-09-03T06:11:39.839Z,22.50
2018-09-03T06:12:39.829Z,22.50
2018-09-03T06:13:39.847Z,28.12
2018-09-03T06:14:39.807Z,28.12
2018-09-03T06:15:39.824Z,33.75
2018-09-03T06:16:39.802Z,33.75
2018-09-03T06:17:39.808Z,39.38
2018-09-03T06:18:39.763Z,39.38
2018-09-03T06:19:39.758Z,45.00
2018-09-03T06:20:39.771Z,45.00
2018-09-03T06:21:39.771Z,45.00
2018-09-03T06:22:39.717Z,50.62
2018-09-03T06:23:39.723Z,50.62
2018-09-03T06:24:39.709Z,50.62
2018-09-03T06:25:39.720Z,50.62
2018-09-03T06:26:39.733Z,50.62
2018-09-03T06:27:39.661Z,50.62
2018-09-03T06:28:39.653Z,56.25
2018-09-03T06:29:39.652Z,56.25
2018-09-03T06:30:39.628Z,56.25
2018-09-03T06:31:39.646Z,56.25
2018-09-03T06:32:39.695Z,56.25
2018-09-03T06:33:39.604Z,56.25
2018-09-03T06:34:39.592Z,56.25
2018-09-03T06:35:39.582Z,56.25
2018-09-03T06:36:39.598Z,56.25
2018-09-03T06:37:39.555Z,56.25
2018-09-03T06:38:39.556Z,61.88
2018-09-03T06:39:39.572Z,61.88
2018-09-03T06:40:39.530Z,61.88
2018-09-03T06:41:39.507Z,67.50
2018-09-03T06:42:39.501Z,67.50
2018-09-03T06:43:39.485Z,67.50
2018-09-03T06:44:39.503Z,67.50
2018-09-03T06:45:39.465Z,67.50
2018-09-03T06:46:39.449Z,67.50
2018-09-03T06:47:39.440Z,67.50
2018-09-03T06:48:39.444Z,61.88
2018-09-03T06:49:39.458Z,56.25
2018-09-03T06:50:39.441Z,56.25
2018-09-03T06:51:39.398Z,61.88
2018-09-03T06:52:39.396Z,56.25
2018-09-03T06:53:39.377Z,45.00
2018-09-03T06:54:39.367Z,39.38
2018-09-03T06:55:39.379Z,33.75
2018-09-03T06:56:39.410Z,33.75
2018-09-03T06:57:39.364Z,33.75
2018-09-03T06:58:39.319Z,33.75
2018-09-03T06:59:39.326Z,28.12
2018-09-03T07:00:39.297Z,28.12
2018-09-03T07:01:39.337Z,28.12
2018-09-03T07:02:39.277Z,22.50
2018-09-03T07:03:39.263Z,28.12
2018-09-03T07:04:39.255Z,28.12
2018-09-03T07:05:39.240Z,28.12
2018-09-03T07:06:39.291Z,28.12
2018-09-03T07:07:39.245Z,28.12
2018-09-03T07:08:39.206Z,28.12
2018-09-03T07:09:39.195Z,28.12
2018-09-03T07:10:39.212Z,28.12
2018-09-03T07:11:39.175Z,33.75
2018-09-03T07:12:39.260Z,39.38
2018-09-03T07:13:39.161Z,45.00
2018-09-03T07:14:39.163Z,50.62
2018-09-03T07:15:39.125Z,61.88
2018-09-03T07:16:39.152Z,73.12
2018-09-03T07:17:39.113Z,84.38
2018-09-03T07:18:39.134Z,90.00
2018-09-03T07:19:39.085Z,90.00
2018-09-03T07:20:39.074Z,90.00
2018-09-03T07:21:39.107Z,90.00
2018-09-03T07:22:39.049Z,90.00
2018-09-03T07:23:39.042Z,95.62
2018-09-03T07:24:39.028Z,101.25
2018-09-03T07:25:39.020Z,106.88
2018-09-03T07:26:39.043Z,112.50
2018-09-03T07:27:38.997Z,112.50
2018-09-03T07:28:39.117Z,112.50
2018-09-03T07:29:38.970Z,106.88
2018-09-03T07:30:38.961Z,106.88
2018-09-03T07:31:38.972Z,112.50
2018-09-03T07:32:38.965Z,112.50
2018-09-03T07:33:38.924Z,112.50
2018-09-03T07:34:38.915Z,118.12
2018-09-03T07:35:38.979Z,123.75
2018-09-03T07:36:38.892Z,123.75
2018-09-03T07:37:38.920Z,101.25
2018-09-03T07:38:38.872Z,78.75
2018-09-03T07:39:38.860Z,61.88
2018-09-03T07:40:38.848Z,50.62
2018-09-03T07:41:38.842Z,50.62
2018-09-03T07:42:38.855Z,50.62
2018-09-03T07:43:38.814Z,50.62
2018-09-03T07:44:38.838Z,61.88
2018-09-03T07:45:38.796Z,61.88
2018-09-03T07:46:38.793Z,61.88
2018-09-03T07:47:38.863Z,50.62
2018-09-03T07:48:38.762Z,56.25
2018-09-03T07:49:38.750Z,61.88
2018-09-03T07:50:38.739Z,56.25
2018-09-03T07:51:38.731Z,45.00
2018-09-03T07:52:38.805Z,45.00
2018-09-03T07:53:38.706Z,45.00
2018-09-03T07:54:38.697Z,50.62
2018-09-03T07:55:38.684Z,39.38
2018-09-03T07:56:38.676Z,28.12
2018-09-03T07:57:38.709Z,22.50
2018-09-03T07:58:38.651Z,28.12
2018-09-03T07:59:38.638Z,45.00
2018-09-03T08:00:38.630Z,61.88
2018-09-03T08:01:38.616Z,67.50
2018-09-03T08:02:38.652Z,73.12
2018-09-03T08:03:38.627Z,73.12
2018-09-03T08:04:38.587Z,78.75
2018-09-03T08:05:38.569Z,61.88
2018-09-03T08:06:38.562Z,50.62
2018-09-03T08:07:38.586Z,50.62
2018-09-03T08:08:38.581Z,56.25
2018-09-03T08:09:38.559Z,67.50
2018-09-03T08:10:38.517Z,67.50
2018-09-03T08:11:38.528Z,56.25
2018-09-03T08:12:38.614Z,50.62
2018-09-03T08:13:38.506Z,56.25
2018-09-03T08:14:38.570Z,56.25
2018-09-03T08:15:38.468Z,56.25
2018-09-03T08:16:38.460Z,56.25
2018-09-03T08:17:38.441Z,67.50
2018-09-03T08:18:38.430Z,67.50
2018-09-03T08:19:38.462Z,61.88
2018-09-03T08:20:38.414Z,67.50
2018-09-03T08:21:38.428Z,56.25
2018-09-03T08:22:38.388Z,61.88
2018-09-03T08:23:38.384Z,67.50
2018-09-03T08:24:38.513Z,61.88
2018-09-03T08:25:38.388Z,50.62
2018-09-03T08:26:38.345Z,45.00
2018-09-03T08:27:38.343Z,39.38
2018-09-03T08:28:38.336Z,50.62
2018-09-03T08:29:38.312Z,61.88
2018-09-03T08:30:38.393Z,61.88
2018-09-03T08:31:38.292Z,50.62
2018-09-03T08:32:38.330Z,45.00
2018-09-03T08:33:38.269Z,45.00
2018-09-03T08:34:38.285Z,50.62
2018-09-03T08:35:38.288Z,56.25
2018-09-03T08:36:38.272Z,61.88
2018-09-03T08:37:38.240Z,56.25
2018-09-03T08:38:38.218Z,50.62
2018-09-03T08:39:38.202Z,45.00
2018-09-03T08:40:38.252Z,39.38
2018-09-03T08:41:38.211Z,39.38
2018-09-03T08:42:38.165Z,39.38
2018-09-03T08:43:38.157Z,50.62
2018-09-03T08:44:38.165Z,67.50
2018-09-03T08:45:38.133Z,73.12
2018-09-03T08:46:38.160Z,78.75
2018-09-03T08:47:38.144Z,78.75
2018-09-03T08:48:39.078Z,95.62
2018-09-03T08:49:38.099Z,95.62
2018-09-03T08:50:38.102Z,78.75
2018-09-03T08:51:38.106Z,73.12
2018-09-03T08:52:38.070Z,61.88
2018-09-03T08:53:38.046Z,61.88
2018-09-03T08:54:38.060Z,73.12
2018-09-03T08:55:38.019Z,84.38
2018-09-03T08:56:38.019Z,101.25
2018-09-03T08:57:38.002Z,118.12
2018-09-03T08:58:38.010Z,112.50
2018-09-03T08:59:37.971Z,95.62
2018-09-03T09:00:37.962Z,106.88
2018-09-03T09:01:37.949Z,106.88
2018-09-03T09:02:37.943Z,112.50
2018-09-03T09:03:37.957Z,118.12
2018-09-03T09:04:38.010Z,118.12
2018-09-03T09:05:37.911Z,106.88
2018-09-03T09:06:37.901Z,90.00
2018-09-03T09:07:37.929Z,95.62
2018-09-03T09:08:37.879Z,95.62
2018-09-03T09:09:37.903Z,95.62
2018-09-03T09:10:37.855Z,106.88
2018-09-03T09:11:37.850Z,95.62
2018-09-03T09:12:37.864Z,78.75
2018-09-03T09:13:37.821Z,67.50
2018-09-03T09:14:37.813Z,56.25
2018-09-03T09:15:37.799Z,50.62
2018-09-03T09:16:37.918Z,50.62
2018-09-03T09:17:37.799Z,56.25
2018-09-03T09:18:37.773Z,56.25
2018-09-03T09:19:37.767Z,56.25
2018-09-03T09:20:37.747Z,67.50
2018-09-03T09:21:37.762Z,73.12
2018-09-03T09:22:37.728Z,67.50
2018-09-03T09:23:37.713Z,56.25
2018-09-03T09:24:37.701Z,56.25
2018-09-03T09:25:37.731Z,61.88
2018-09-03T09:26:37.685Z,56.25
2018-09-03T09:27:37.677Z,56.25
2018-09-03T09:28:37.709Z,56.25
2018-09-03T09:29:37.650Z,56.25
2018-09-03T09:30:37.664Z,67.50
2018-09-03T09:31:37.624Z,84.38
2018-09-03T09:32:37.646Z,101.25
2018-09-03T09:33:37.606Z,112.50
2018-09-03T09:34:37.592Z,118.12
2018-09-03T09:35:37.594Z,112.50
2018-09-03T09:36:37.595Z,106.88
2018-09-03T09:37:37.596Z,95.62
2018-09-03T09:38:37.574Z,90.00
2018-09-03T09:39:37.552Z,101.25
2018-09-03T09:40:37.562Z,106.88
2018-09-03T09:41:37.515Z,90.00
2018-09-03T09:42:37.542Z,78.75
2018-09-03T09:43:37.492Z,84.38
2018-09-03T09:44:37.497Z,118.12
2018-09-03T09:45:37.468Z,140.62
2018-09-03T09:46:37.501Z,118.12
2018-09-03T09:47:37.465Z,90.00
2018-09-03T09:48:37.441Z,78.75
2018-09-03T09:49:37.474Z,95.62
2018-09-03T09:50:37.413Z,106.88
2018-09-03T09:51:37.435Z,101.25
2018-09-03T09:52:37.391Z,95.62
2018-09-03T09:53:37.402Z,84.38
2018-09-03T09:54:37.369Z,95.62
2018-09-03T09:55:37.369Z,106.88
2018-09-03T09:56:37.388Z,95.62
2018-09-03T09:57:37.405Z,84.38
2018-09-03T09:58:37.328Z,73.12
2018-09-03T09:59:37.324Z,73.12
2018-09-03T10:00:37.358Z,84.38
2018-09-03T10:01:37.296Z,101.25
2018-09-03T10:02:37.308Z,112.50
2018-09-03T10:03:37.275Z,106.88
2018-09-03T10:04:37.262Z,95.62
2018-09-03T10:05:37.253Z,101.25
2018-09-03T10:06:37.237Z,112.50
2018-09-03T10:07:37.353Z,118.12
2018-09-03T10:08:37.219Z,129.38
2018-09-03T10:09:37.208Z,135.00
2018-09-03T10:10:37.242Z,135.00
2018-09-03T10:11:37.211Z,135.00
2018-09-03T10:12:37.186Z,140.62
2018-09-03T10:13:37.166Z,123.75
2018-09-03T10:14:37.153Z,112.50
2018-09-03T10:15:37.188Z,101.25
2018-09-03T10:16:37.131Z,95.62
2018-09-03T10:17:37.137Z,118.12
2018-09-03T10:18:37.110Z,151.88
2018-09-03T10:19:37.103Z,163.12
2018-09-03T10:20:37.227Z,157.50
2018-09-03T10:21:37.085Z,135.00
2018-09-03T10:22:37.073Z,112.50
2018-09-03T10:23:37.055Z,106.88
2018-09-03T10:24:37.132Z,106.88
2018-09-03T10:25:37.084Z,106.88
2018-09-03T10:26:37.018Z,101.25
2018-09-03T10:27:37.015Z,106.88
2018-09-03T10:28:37.003Z,118.12
2018-09-03T10:29:36.990Z,135.00
2018-09-03T10:30:37.008Z,129.38
2018-09-03T10:31:36.998Z,112.50
2018-09-03T10:32:36.952Z,101.25
2018-09-03T10:33:36.946Z,95.62
2018-09-03T10:34:36.932Z,95.62
2018-09-03T10:35:36.927Z,90.00
2018-09-03T10:36:36.946Z,84.38
2018-09-03T10:37:36.902Z,84.38
2018-09-03T10:38:36.893Z,90.00
2018-09-03T10:39:36.882Z,95.62
2018-09-03T10:40:36.879Z,106.88
2018-09-03T10:41:36.900Z,118.12
2018-09-03T10:42:36.848Z,129.38
2018-09-03T10:43:36.867Z,135.00
2018-09-03T10:44:36.828Z,146.25
2018-09-03T10:45:36.815Z,151.88
2018-09-03T10:46:36.841Z,146.25
2018-09-03T10:47:36.845Z,157.50
2018-09-03T10:48:36.806Z,180.00
2018-09-03T10:49:36.777Z,196.88
2018-09-03T10:50:36.757Z,191.25
2018-09-03T10:51:36.745Z,202.50
2018-09-03T10:52:36.738Z,202.50
2018-09-03T10:53:36.762Z,202.50
2018-09-03T10:54:36.749Z,185.62
2018-09-03T10:55:36.704Z,174.38
2018-09-03T10:56:36.695Z,180.00
2018-09-03T10:57:36.732Z,191.25
2018-09-03T10:58:36.672Z,168.75
2018-09-03T10:59:36.671Z,151.88
2018-09-03T11:00:36.650Z,140.62
2018-09-03T11:01:36.636Z,168.75
2018-09-03T11:02:36.663Z,213.75
2018-09-03T11:03:36.618Z,208.12
2018-09-03T11:04:36.638Z,191.25
2018-09-03T11:05:36.642Z,185.62
2018-09-03T11:06:36.589Z,196.88
2018-09-03T11:07:36.568Z,196.88
2018-09-03T11:08:36.559Z,202.50
2018-09-03T11:09:36.546Z,202.50
2018-09-03T11:10:36.584Z,208.12
2018-09-03T11:11:36.529Z,208.12
2018-09-03T11:12:36.520Z,219.38
2018-09-03T11:13:36.515Z,208.12
2018-09-03T11:14:36.517Z,191.25
2018-09-03T11:15:36.525Z,174.38
2018-09-03T11:16:36.486Z,180.00
2018-09-03T11:17:36.506Z,180.00
2018-09-03T11:18:36.461Z,180.00
2018-09-03T11:19:36.442Z,168.75
2018-09-03T11:20:36.456Z,163.12
2018-09-03T11:21:36.633Z,163.12
2018-09-03T11:22:36.441Z,163.12
2018-09-03T11:23:36.497Z,157.50
2018-09-03T11:24:36.384Z,157.50
2018-09-03T11:25:36.377Z,146.25
2018-09-03T11:26:36.401Z,151.88
2018-09-03T11:27:36.390Z,157.50
2018-09-03T11:28:36.426Z,157.50
2018-09-03T11:29:36.338Z,163.12
2018-09-03T11:30:36.395Z,163.12
2018-09-03T11:31:36.309Z,157.50
2018-09-03T11:32:36.336Z,163.12
2018-09-03T11:33:36.295Z,180.00
2018-09-03T11:34:36.312Z,191.25
2018-09-03T11:35:36.263Z,191.25
2018-09-03T11:36:36.257Z,191.25
2018-09-03T11:37:36.242Z,196.88
2018-09-03T11:38:36.361Z,196.88
2018-09-03T11:39:36.257Z,191.25
2018-09-03T11:40:36.210Z,174.38
2018-09-03T11:41:36.242Z,168.75
2018-09-03T11:42:36.191Z,151.88
2018-09-03T11:43:36.181Z,140.62
2018-09-03T11:44:36.173Z,135.00
2018-09-03T11:45:36.188Z,129.38
2018-09-03T11:46:36.150Z,129.38
2018-09-03T11:47:36.138Z,135.00
2018-09-03T11:48:36.127Z,135.00
2018-09-03T11:49:36.112Z,140.62
2018-09-03T11:50:36.134Z,146.25
2018-09-03T11:51:36.094Z,157.50
2018-09-03T11:52:36.084Z,157.50
2018-09-03T11:53:36.145Z,163.12
2018-09-03T11:54:36.078Z,180.00
2018-09-03T11:55:36.050Z,180.00
2018-09-03T11:56:36.075Z,180.00
2018-09-03T11:57:36.042Z,174.38
2018-09-03T11:58:36.053Z,191.25
2018-09-03T11:59:36.012Z,202.50
2018-09-03T12:00:36.160Z,185.62
2018-09-03T12:01:35.984Z,185.62
2018-09-03T12:02:35.997Z,208.12
2018-09-03T12:03:35.975Z,219.38
2018-09-03T12:04:35.954Z,208.12
2018-09-03T12:05:35.947Z,202.50
2018-09-03T12:06:35.976Z,202.50
2018-09-03T12:07:35.965Z,196.88
2018-09-03T12:08:35.918Z,191.25
2018-09-03T12:09:35.896Z,180.00
2018-09-03T12:10:35.921Z,168.75
2018-09-03T12:11:35.875Z,174.38
2018-09-03T12:12:35.898Z,196.88
2018-09-03T12:13:35.854Z,202.50
2018-09-03T12:14:35.851Z,202.50
2018-09-03T12:15:35.835Z,196.88
2018-09-03T12:16:35.833Z,196.88
2018-09-03T12:17:35.842Z,180.00
2018-09-03T12:18:35.807Z,185.62
2018-09-03T12:19:35.798Z,208.12
2018-09-03T12:20:35.787Z,191.25
2018-09-03T12:21:35.799Z,163.12
2018-09-03T12:22:35.758Z,168.75
2018-09-03T12:23:35.751Z,191.25
2018-09-03T12:24:35.782Z,202.50
2018-09-03T12:25:35.727Z,196.88
2018-09-03T12:26:35.718Z,225.00
2018-09-03T12:27:35.742Z,236.25
2018-09-03T12:28:35.689Z,264.38
2018-09-03T12:29:35.677Z,275.62
2018-09-03T12:30:35.676Z,264.38
2018-09-03T12:31:35.656Z,236.25
2018-09-03T12:32:35.673Z,253.12
2018-09-03T12:33:35.633Z,275.62
2018-09-03T12:34:35.623Z,230.62
2018-09-03T12:35:35.609Z,213.75
2018-09-03T12:36:35.743Z,208.12
2018-09-03T12:37:35.593Z,191.25
2018-09-03T12:38:35.588Z,174.38
2018-09-03T12:39:35.571Z,168.75
2018-09-03T12:40:35.557Z,168.75
2018-09-03T12:41:40.702Z,168.75
2018-09-03T12:42:35.559Z,146.25
2018-09-03T12:43:35.529Z,146.25
2018-09-03T12:44:35.571Z,151.88
2018-09-03T12:45:35.505Z,146.25
2018-09-03T12:46:35.496Z,146.25
2018-09-03T12:47:35.481Z,146.25
2018-09-03T12:48:35.467Z,146.25
2018-09-03T12:49:35.456Z,146.25
2018-09-03T12:50:35.474Z,135.00
2018-09-03T12:51:35.451Z,163.12
2018-09-03T12:52:36.137Z,191.25
2018-09-03T12:53:35.447Z,202.50
2018-09-03T12:54:35.408Z,180.00
2018-09-03T12:55:35.421Z,151.88
2018-09-03T12:56:35.382Z,135.00